sensor_id;sensor_type;location;lat;lon;timestamp;P1;durP1;ratioP1;P2;durP2;ratioP2
16286;SDS011;8251;53.568;10.018;2023-04-15T00:00:45;3.63;;;2.70;;
16286;SDS011;8251;53.568;10.018;2023-04-15T00:03:12;4.37;;;2.93;;
16286;SDS011;8251;53.568;10.018;2023-04-15T00:05:39;3.60;;;2.90;;
16286;SDS011;8251;53.568;10.018;2023-04-15T00:08:07;4.57;;;2.70;;
16286;SDS011;8251;53.568;10.018;2023-04-15T00:10:34;3.40;;;2.73;;
16286;SDS011;8251;53.568;10.018;2023-04-15T00:13:01;3.93;;;2.73;;
16286;SDS011;8251;53.568;10.018;2023-04-15T00:15:28;3.60;;;3.03;;
16286;SDS011;8251;53.568;10.018;2023-04-15T00:17:58;3.63;;;2.70;;
16286;SDS011;8251;53.568;10.018;2023-04-15T00:20:43;4.07;;;3.00;;
16286;SDS011;8251;53.568;10.018;2023-04-15T00:23:11;4.27;;;3.37;;
16286;SDS011;8251;53.568;10.018;2023-04-15T00:25:38;4.50;;;2.93;;
16286;SDS011;8251;53.568;10.018;2023-04-15T00:28:05;3.23;;;2.40;;
16286;SDS011;8251;53.568;10.018;2023-04-15T00:30:32;5.00;;;3.23;;
16286;SDS011;8251;53.568;10.018;2023-04-15T00:33:00;4.47;;;2.87;;
16286;SDS011;8251;53.568;10.018;2023-04-15T00:35:27;5.87;;;2.97;;
16286;SDS011;8251;53.568;10.018;2023-04-15T00:38:00;3.53;;;2.77;;
16286;SDS011;8251;53.568;10.018;2023-04-15T00:40:30;3.17;;;2.57;;
16286;SDS011;8251;53.568;10.018;2023-04-15T00:42:57;3.97;;;2.90;;
16286;SDS011;8251;53.568;10.018;2023-04-15T00:45:24;4.03;;;2.80;;
16286;SDS011;8251;53.568;10.018;2023-04-15T00:47:52;9.53;;;5.10;;
16286;SDS011;8251;53.568;10.018;2023-04-15T00:50:19;5.63;;;3.77;;
16286;SDS011;8251;53.568;10.018;2023-04-15T00:52:46;6.27;;;3.47;;
16286;SDS011;8251;53.568;10.018;2023-04-15T00:55:16;4.40;;;3.30;;
16286;SDS011;8251;53.568;10.018;2023-04-15T00:57:44;3.93;;;2.70;;
16286;SDS011;8251;53.568;10.018;2023-04-15T01:00:12;3.10;;;2.60;;
16286;SDS011;8251;53.568;10.018;2023-04-15T01:02:40;4.03;;;2.70;;
16286;SDS011;8251;53.568;10.018;2023-04-15T01:05:07;4.57;;;2.73;;
16286;SDS011;8251;53.568;10.018;2023-04-15T01:07:34;5.83;;;2.93;;
16286;SDS011;8251;53.568;10.018;2023-04-15T01:10:01;3.80;;;2.80;;
16286;SDS011;8251;53.568;10.018;2023-04-15T01:12:29;3.53;;;2.77;;
16286;SDS011;8251;53.568;10.018;2023-04-15T01:14:59;5.27;;;2.70;;
16286;SDS011;8251;53.568;10.018;2023-04-15T01:17:27;3.53;;;2.63;;
16286;SDS011;8251;53.568;10.018;2023-04-15T01:19:55;3.50;;;2.73;;
16286;SDS011;8251;53.568;10.018;2023-04-15T01:22:23;4.17;;;2.50;;
16286;SDS011;8251;53.568;10.018;2023-04-15T01:24:53;3.87;;;2.57;;
16286;SDS011;8251;53.568;10.018;2023-04-15T01:27:27;3.47;;;2.80;;
16286;SDS011;8251;53.568;10.018;2023-04-15T01:29:55;3.63;;;2.73;;
16286;SDS011;8251;53.568;10.018;2023-04-15T01:32:22;3.07;;;2.33;;
16286;SDS011;8251;53.568;10.018;2023-04-15T01:34:49;5.30;;;3.27;;
16286;SDS011;8251;53.568;10.018;2023-04-15T01:37:16;4.07;;;2.73;;
16286;SDS011;8251;53.568;10.018;2023-04-15T01:39:43;4.23;;;3.10;;
16286;SDS011;8251;53.568;10.018;2023-04-15T01:42:10;3.43;;;2.83;;
16286;SDS011;8251;53.568;10.018;2023-04-15T01:44:39;3.63;;;2.63;;
16286;SDS011;8251;53.568;10.018;2023-04-15T01:47:05;4.03;;;2.80;;
16286;SDS011;8251;53.568;10.018;2023-04-15T01:49:32;3.13;;;2.40;;
16286;SDS011;8251;53.568;10.018;2023-04-15T01:52:00;3.23;;;2.57;;
16286;SDS011;8251;53.568;10.018;2023-04-15T01:54:27;3.97;;;2.93;;
16286;SDS011;8251;53.568;10.018;2023-04-15T01:56:53;6.83;;;3.37;;
16286;SDS011;8251;53.568;10.018;2023-04-15T01:59:20;4.07;;;2.57;;
16286;SDS011;8251;53.568;10.018;2023-04-15T02:01:49;4.83;;;3.03;;
16286;SDS011;8251;53.568;10.018;2023-04-15T02:04:16;4.30;;;3.37;;
16286;SDS011;8251;53.568;10.018;2023-04-15T02:06:43;4.80;;;3.07;;
16286;SDS011;8251;53.568;10.018;2023-04-15T02:09:10;4.23;;;3.27;;
16286;SDS011;8251;53.568;10.018;2023-04-15T02:11:38;5.80;;;3.47;;
16286;SDS011;8251;53.568;10.018;2023-04-15T02:14:05;4.07;;;3.20;;
16286;SDS011;8251;53.568;10.018;2023-04-15T02:16:32;4.83;;;3.53;;
16286;SDS011;8251;53.568;10.018;2023-04-15T02:19:00;4.90;;;3.23;;
16286;SDS011;8251;53.568;10.018;2023-04-15T02:21:28;5.90;;;3.87;;
16286;SDS011;8251;53.568;10.018;2023-04-15T02:23:55;4.57;;;3.63;;
16286;SDS011;8251;53.568;10.018;2023-04-15T02:26:22;4.27;;;3.57;;
16286;SDS011;8251;53.568;10.018;2023-04-15T02:28:51;6.07;;;3.80;;
16286;SDS011;8251;53.568;10.018;2023-04-15T02:31:19;6.50;;;4.77;;
16286;SDS011;8251;53.568;10.018;2023-04-15T02:33:46;5.53;;;3.60;;
16286;SDS011;8251;53.568;10.018;2023-04-15T02:36:14;13.57;;;4.50;;
16286;SDS011;8251;53.568;10.018;2023-04-15T02:38:41;5.57;;;4.10;;
16286;SDS011;8251;53.568;10.018;2023-04-15T02:41:08;5.60;;;4.00;;
16286;SDS011;8251;53.568;10.018;2023-04-15T02:43:35;6.57;;;4.33;;
16286;SDS011;8251;53.568;10.018;2023-04-15T02:46:03;7.60;;;4.67;;
16286;SDS011;8251;53.568;10.018;2023-04-15T02:48:31;5.80;;;3.77;;
16286;SDS011;8251;53.568;10.018;2023-04-15T02:51:11;7.47;;;4.67;;
16286;SDS011;8251;53.568;10.018;2023-04-15T02:53:40;6.57;;;4.43;;
16286;SDS011;8251;53.568;10.018;2023-04-15T02:56:07;9.40;;;5.03;;
16286;SDS011;8251;53.568;10.018;2023-04-15T02:58:35;8.20;;;5.30;;
16286;SDS011;8251;53.568;10.018;2023-04-15T03:01:03;8.37;;;5.07;;
16286;SDS011;8251;53.568;10.018;2023-04-15T03:03:30;7.67;;;5.30;;
16286;SDS011;8251;53.568;10.018;2023-04-15T03:05:57;8.33;;;5.07;;
16286;SDS011;8251;53.568;10.018;2023-04-15T03:08:25;6.90;;;4.80;;
16286;SDS011;8251;53.568;10.018;2023-04-15T03:10:52;7.90;;;4.93;;
16286;SDS011;8251;53.568;10.018;2023-04-15T03:13:19;8.03;;;5.67;;
16286;SDS011;8251;53.568;10.018;2023-04-15T03:15:46;9.07;;;5.27;;
16286;SDS011;8251;53.568;10.018;2023-04-15T03:18:13;9.30;;;6.20;;
16286;SDS011;8251;53.568;10.018;2023-04-15T03:20:40;9.80;;;5.97;;
16286;SDS011;8251;53.568;10.018;2023-04-15T03:23:06;12.47;;;6.23;;
16286;SDS011;8251;53.568;10.018;2023-04-15T03:25:35;9.93;;;6.07;;
16286;SDS011;8251;53.568;10.018;2023-04-15T03:28:02;7.37;;;4.93;;
16286;SDS011;8251;53.568;10.018;2023-04-15T03:30:29;8.87;;;6.03;;
16286;SDS011;8251;53.568;10.018;2023-04-15T03:32:56;9.80;;;5.67;;
16286;SDS011;8251;53.568;10.018;2023-04-15T03:35:23;9.63;;;5.73;;
16286;SDS011;8251;53.568;10.018;2023-04-15T03:37:50;12.13;;;6.77;;
16286;SDS011;8251;53.568;10.018;2023-04-15T03:40:17;9.67;;;6.07;;
16286;SDS011;8251;53.568;10.018;2023-04-15T03:42:45;9.33;;;5.83;;
16286;SDS011;8251;53.568;10.018;2023-04-15T03:45:12;9.53;;;6.50;;
16286;SDS011;8251;53.568;10.018;2023-04-15T03:47:39;11.13;;;6.40;;
16286;SDS011;8251;53.568;10.018;2023-04-15T03:50:06;9.20;;;5.80;;
16286;SDS011;8251;53.568;10.018;2023-04-15T03:52:33;11.47;;;6.30;;
16286;SDS011;8251;53.568;10.018;2023-04-15T03:55:01;11.70;;;7.13;;
16286;SDS011;8251;53.568;10.018;2023-04-15T03:57:27;9.57;;;6.23;;
16286;SDS011;8251;53.568;10.018;2023-04-15T03:59:56;10.73;;;6.30;;
16286;SDS011;8251;53.568;10.018;2023-04-15T04:02:23;12.83;;;6.63;;
16286;SDS011;8251;53.568;10.018;2023-04-15T04:04:52;10.63;;;6.83;;
16286;SDS011;8251;53.568;10.018;2023-04-15T04:07:18;11.00;;;6.47;;
16286;SDS011;8251;53.568;10.018;2023-04-15T04:09:45;11.40;;;6.70;;
16286;SDS011;8251;53.568;10.018;2023-04-15T04:12:12;10.00;;;6.30;;
16286;SDS011;8251;53.568;10.018;2023-04-15T04:14:39;10.30;;;6.43;;
16286;SDS011;8251;53.568;10.018;2023-04-15T04:17:08;10.93;;;6.70;;
16286;SDS011;8251;53.568;10.018;2023-04-15T04:19:34;10.43;;;6.77;;
16286;SDS011;8251;53.568;10.018;2023-04-15T04:22:01;9.23;;;6.47;;
16286;SDS011;8251;53.568;10.018;2023-04-15T04:24:28;12.83;;;6.67;;
16286;SDS011;8251;53.568;10.018;2023-04-15T04:26:55;11.33;;;6.83;;
16286;SDS011;8251;53.568;10.018;2023-04-15T04:29:22;9.40;;;5.47;;
16286;SDS011;8251;53.568;10.018;2023-04-15T04:31:49;10.60;;;6.37;;
16286;SDS011;8251;53.568;10.018;2023-04-15T04:34:17;11.13;;;6.50;;
16286;SDS011;8251;53.568;10.018;2023-04-15T04:36:44;10.77;;;6.27;;
16286;SDS011;8251;53.568;10.018;2023-04-15T04:39:11;13.67;;;8.67;;
16286;SDS011;8251;53.568;10.018;2023-04-15T04:41:38;11.70;;;6.17;;
16286;SDS011;8251;53.568;10.018;2023-04-15T04:44:05;12.87;;;8.07;;
16286;SDS011;8251;53.568;10.018;2023-04-15T04:46:32;15.07;;;8.20;;
16286;SDS011;8251;53.568;10.018;2023-04-15T04:48:59;14.27;;;8.50;;
16286;SDS011;8251;53.568;10.018;2023-04-15T04:51:27;16.27;;;9.30;;
16286;SDS011;8251;53.568;10.018;2023-04-15T04:53:54;15.67;;;8.20;;
16286;SDS011;8251;53.568;10.018;2023-04-15T04:56:21;16.57;;;8.50;;
16286;SDS011;8251;53.568;10.018;2023-04-15T04:58:48;15.57;;;9.07;;
16286;SDS011;8251;53.568;10.018;2023-04-15T05:01:15;17.13;;;9.53;;
16286;SDS011;8251;53.568;10.018;2023-04-15T05:03:42;18.20;;;10.23;;
16286;SDS011;8251;53.568;10.018;2023-04-15T05:06:09;19.47;;;10.33;;
16286;SDS011;8251;53.568;10.018;2023-04-15T05:08:37;16.13;;;9.63;;
16286;SDS011;8251;53.568;10.018;2023-04-15T05:11:13;22.43;;;11.00;;
16286;SDS011;8251;53.568;10.018;2023-04-15T05:13:40;20.47;;;10.77;;
16286;SDS011;8251;53.568;10.018;2023-04-15T05:16:07;19.90;;;11.07;;
16286;SDS011;8251;53.568;10.018;2023-04-15T05:18:34;19.70;;;11.60;;
16286;SDS011;8251;53.568;10.018;2023-04-15T05:21:01;19.80;;;11.20;;
16286;SDS011;8251;53.568;10.018;2023-04-15T05:23:28;21.80;;;11.93;;
16286;SDS011;8251;53.568;10.018;2023-04-15T05:25:57;21.13;;;10.63;;
16286;SDS011;8251;53.568;10.018;2023-04-15T05:28:24;26.07;;;12.27;;
16286;SDS011;8251;53.568;10.018;2023-04-15T05:30:51;23.03;;;12.10;;
16286;SDS011;8251;53.568;10.018;2023-04-15T05:33:18;20.27;;;11.57;;
16286;SDS011;8251;53.568;10.018;2023-04-15T05:35:45;20.60;;;11.47;;
16286;SDS011;8251;53.568;10.018;2023-04-15T05:38:12;24.63;;;11.90;;
16286;SDS011;8251;53.568;10.018;2023-04-15T05:40:39;21.70;;;12.47;;
16286;SDS011;8251;53.568;10.018;2023-04-15T05:43:07;17.97;;;11.17;;
16286;SDS011;8251;53.568;10.018;2023-04-15T05:45:34;20.53;;;12.93;;
16286;SDS011;8251;53.568;10.018;2023-04-15T05:48:01;27.73;;;11.60;;
16286;SDS011;8251;53.568;10.018;2023-04-15T05:50:28;24.80;;;13.30;;
16286;SDS011;8251;53.568;10.018;2023-04-15T05:52:56;21.33;;;11.70;;
16286;SDS011;8251;53.568;10.018;2023-04-15T05:55:23;24.77;;;13.13;;
16286;SDS011;8251;53.568;10.018;2023-04-15T05:57:50;23.43;;;13.03;;
16286;SDS011;8251;53.568;10.018;2023-04-15T06:00:18;20.70;;;12.30;;
16286;SDS011;8251;53.568;10.018;2023-04-15T06:02:46;23.23;;;12.27;;
16286;SDS011;8251;53.568;10.018;2023-04-15T06:05:13;20.70;;;12.20;;
16286;SDS011;8251;53.568;10.018;2023-04-15T06:07:40;21.53;;;11.73;;
16286;SDS011;8251;53.568;10.018;2023-04-15T06:10:08;20.23;;;11.87;;
16286;SDS011;8251;53.568;10.018;2023-04-15T06:12:35;22.20;;;12.73;;
16286;SDS011;8251;53.568;10.018;2023-04-15T06:15:02;22.97;;;11.57;;
16286;SDS011;8251;53.568;10.018;2023-04-15T06:17:32;22.70;;;12.73;;
16286;SDS011;8251;53.568;10.018;2023-04-15T06:19:58;20.83;;;12.53;;
16286;SDS011;8251;53.568;10.018;2023-04-15T06:22:25;22.13;;;13.10;;
16286;SDS011;8251;53.568;10.018;2023-04-15T06:24:52;24.50;;;13.13;;
16286;SDS011;8251;53.568;10.018;2023-04-15T06:27:20;25.30;;;12.83;;
16286;SDS011;8251;53.568;10.018;2023-04-15T06:29:47;27.60;;;14.13;;
16286;SDS011;8251;53.568;10.018;2023-04-15T06:32:14;26.73;;;13.60;;
16286;SDS011;8251;53.568;10.018;2023-04-15T06:34:43;24.33;;;13.13;;
16286;SDS011;8251;53.568;10.018;2023-04-15T06:37:10;28.10;;;14.90;;
16286;SDS011;8251;53.568;10.018;2023-04-15T06:39:40;24.53;;;13.20;;
16286;SDS011;8251;53.568;10.018;2023-04-15T06:42:07;28.37;;;14.97;;
16286;SDS011;8251;53.568;10.018;2023-04-15T06:44:35;32.33;;;16.07;;
16286;SDS011;8251;53.568;10.018;2023-04-15T06:47:02;23.70;;;13.77;;
16286;SDS011;8251;53.568;10.018;2023-04-15T06:49:29;26.93;;;15.23;;
16286;SDS011;8251;53.568;10.018;2023-04-15T06:51:57;26.60;;;15.20;;
16286;SDS011;8251;53.568;10.018;2023-04-15T06:54:24;27.37;;;14.20;;
16286;SDS011;8251;53.568;10.018;2023-04-15T06:56:51;27.47;;;15.77;;
16286;SDS011;8251;53.568;10.018;2023-04-15T06:59:18;25.97;;;14.63;;
16286;SDS011;8251;53.568;10.018;2023-04-15T07:01:46;29.77;;;15.63;;
16286;SDS011;8251;53.568;10.018;2023-04-15T07:04:12;25.67;;;16.03;;
16286;SDS011;8251;53.568;10.018;2023-04-15T07:06:39;28.70;;;16.83;;
16286;SDS011;8251;53.568;10.018;2023-04-15T07:09:08;31.10;;;15.77;;
16286;SDS011;8251;53.568;10.018;2023-04-15T07:11:35;32.93;;;15.57;;
16286;SDS011;8251;53.568;10.018;2023-04-15T07:14:02;33.57;;;16.73;;
16286;SDS011;8251;53.568;10.018;2023-04-15T07:16:29;29.63;;;16.23;;
16286;SDS011;8251;53.568;10.018;2023-04-15T07:18:56;28.60;;;16.23;;
16286;SDS011;8251;53.568;10.018;2023-04-15T07:21:24;29.43;;;16.07;;
16286;SDS011;8251;53.568;10.018;2023-04-15T07:23:54;31.23;;;16.67;;
16286;SDS011;8251;53.568;10.018;2023-04-15T07:26:25;33.33;;;16.53;;
16286;SDS011;8251;53.568;10.018;2023-04-15T07:28:53;31.83;;;17.00;;
16286;SDS011;8251;53.568;10.018;2023-04-15T07:31:20;28.17;;;16.07;;
16286;SDS011;8251;53.568;10.018;2023-04-15T07:33:47;29.43;;;16.03;;
16286;SDS011;8251;53.568;10.018;2023-04-15T07:36:14;29.43;;;16.07;;
16286;SDS011;8251;53.568;10.018;2023-04-15T07:38:41;28.63;;;16.20;;
16286;SDS011;8251;53.568;10.018;2023-04-15T07:41:08;25.87;;;15.13;;
16286;SDS011;8251;53.568;10.018;2023-04-15T07:43:37;30.77;;;17.47;;
16286;SDS011;8251;53.568;10.018;2023-04-15T07:46:04;30.27;;;17.33;;
16286;SDS011;8251;53.568;10.018;2023-04-15T07:48:30;28.70;;;16.50;;
16286;SDS011;8251;53.568;10.018;2023-04-15T07:51:00;34.07;;;17.73;;
16286;SDS011;8251;53.568;10.018;2023-04-15T07:53:27;25.33;;;15.53;;
16286;SDS011;8251;53.568;10.018;2023-04-15T07:56:10;31.97;;;16.70;;
16286;SDS011;8251;53.568;10.018;2023-04-15T07:58:40;29.03;;;15.60;;
16286;SDS011;8251;53.568;10.018;2023-04-15T08:01:07;28.07;;;16.63;;
16286;SDS011;8251;53.568;10.018;2023-04-15T08:03:37;27.27;;;16.20;;
16286;SDS011;8251;53.568;10.018;2023-04-15T08:06:11;29.67;;;16.03;;
16286;SDS011;8251;53.568;10.018;2023-04-15T08:08:39;37.00;;;18.13;;
16286;SDS011;8251;53.568;10.018;2023-04-15T08:11:09;33.50;;;17.13;;
16286;SDS011;8251;53.568;10.018;2023-04-15T08:13:36;33.20;;;17.37;;
16286;SDS011;8251;53.568;10.018;2023-04-15T08:16:15;34.83;;;18.07;;
16286;SDS011;8251;53.568;10.018;2023-04-15T08:18:43;33.57;;;16.83;;
16286;SDS011;8251;53.568;10.018;2023-04-15T08:21:10;37.03;;;19.30;;
16286;SDS011;8251;53.568;10.018;2023-04-15T08:23:38;37.63;;;18.80;;
16286;SDS011;8251;53.568;10.018;2023-04-15T08:26:06;31.23;;;17.50;;
16286;SDS011;8251;53.568;10.018;2023-04-15T08:28:34;35.10;;;18.33;;
16286;SDS011;8251;53.568;10.018;2023-04-15T08:31:03;34.43;;;18.50;;
16286;SDS011;8251;53.568;10.018;2023-04-15T08:33:33;34.10;;;18.17;;
16286;SDS011;8251;53.568;10.018;2023-04-15T08:36:01;38.97;;;18.23;;
16286;SDS011;8251;53.568;10.018;2023-04-15T08:38:28;31.27;;;17.27;;
16286;SDS011;8251;53.568;10.018;2023-04-15T08:40:55;32.63;;;17.57;;
16286;SDS011;8251;53.568;10.018;2023-04-15T08:43:26;30.73;;;17.73;;
16286;SDS011;8251;53.568;10.018;2023-04-15T08:45:54;31.50;;;16.77;;
16286;SDS011;8251;53.568;10.018;2023-04-15T08:48:24;32.57;;;17.30;;
16286;SDS011;8251;53.568;10.018;2023-04-15T08:50:55;30.87;;;17.27;;
16286;SDS011;8251;53.568;10.018;2023-04-15T08:53:23;31.40;;;16.60;;
16286;SDS011;8251;53.568;10.018;2023-04-15T08:55:51;33.00;;;17.80;;
16286;SDS011;8251;53.568;10.018;2023-04-15T08:58:22;32.40;;;17.70;;
16286;SDS011;8251;53.568;10.018;2023-04-15T09:00:50;34.17;;;16.80;;
16286;SDS011;8251;53.568;10.018;2023-04-15T09:03:19;29.50;;;17.43;;
16286;SDS011;8251;53.568;10.018;2023-04-15T09:05:47;32.50;;;17.00;;
16286;SDS011;8251;53.568;10.018;2023-04-15T09:08:17;28.70;;;16.83;;
16286;SDS011;8251;53.568;10.018;2023-04-15T09:10:44;32.73;;;16.27;;
16286;SDS011;8251;53.568;10.018;2023-04-15T09:13:11;31.10;;;18.40;;
16286;SDS011;8251;53.568;10.018;2023-04-15T09:15:38;33.13;;;17.53;;
16286;SDS011;8251;53.568;10.018;2023-04-15T09:18:06;32.90;;;17.40;;
16286;SDS011;8251;53.568;10.018;2023-04-15T09:20:37;32.00;;;17.90;;
16286;SDS011;8251;53.568;10.018;2023-04-15T09:23:16;33.90;;;17.50;;
16286;SDS011;8251;53.568;10.018;2023-04-15T09:25:43;32.17;;;18.33;;
16286;SDS011;8251;53.568;10.018;2023-04-15T09:28:11;29.57;;;17.10;;
16286;SDS011;8251;53.568;10.018;2023-04-15T09:30:41;35.43;;;18.27;;
16286;SDS011;8251;53.568;10.018;2023-04-15T09:33:10;32.27;;;17.47;;
16286;SDS011;8251;53.568;10.018;2023-04-15T09:35:41;39.23;;;17.97;;
16286;SDS011;8251;53.568;10.018;2023-04-15T09:38:22;40.57;;;17.63;;
16286;SDS011;8251;53.568;10.018;2023-04-15T09:40:49;33.27;;;16.93;;
16286;SDS011;8251;53.568;10.018;2023-04-15T09:43:19;34.47;;;18.97;;
16286;SDS011;8251;53.568;10.018;2023-04-15T09:45:47;32.30;;;18.70;;
16286;SDS011;8251;53.568;10.018;2023-04-15T09:48:15;34.30;;;18.73;;
16286;SDS011;8251;53.568;10.018;2023-04-15T09:50:44;33.70;;;17.57;;
16286;SDS011;8251;53.568;10.018;2023-04-15T09:53:14;31.70;;;18.23;;
16286;SDS011;8251;53.568;10.018;2023-04-15T09:55:48;28.43;;;17.47;;
16286;SDS011;8251;53.568;10.018;2023-04-15T09:58:21;27.87;;;17.07;;
16286;SDS011;8251;53.568;10.018;2023-04-15T10:00:55;31.70;;;17.60;;
16286;SDS011;8251;53.568;10.018;2023-04-15T10:03:23;29.00;;;16.70;;
16286;SDS011;8251;53.568;10.018;2023-04-15T10:05:52;27.83;;;16.77;;
16286;SDS011;8251;53.568;10.018;2023-04-15T10:08:21;27.63;;;15.87;;
16286;SDS011;8251;53.568;10.018;2023-04-15T10:10:52;31.47;;;17.63;;
16286;SDS011;8251;53.568;10.018;2023-04-15T10:13:22;25.37;;;15.97;;
16286;SDS011;8251;53.568;10.018;2023-04-15T10:15:56;28.97;;;15.23;;
16286;SDS011;8251;53.568;10.018;2023-04-15T10:18:34;25.83;;;15.03;;
16286;SDS011;8251;53.568;10.018;2023-04-15T10:21:10;27.57;;;15.13;;
16286;SDS011;8251;53.568;10.018;2023-04-15T10:23:38;32.63;;;17.70;;
16286;SDS011;8251;53.568;10.018;2023-04-15T10:26:08;25.93;;;16.57;;
16286;SDS011;8251;53.568;10.018;2023-04-15T10:28:42;22.30;;;14.17;;
16286;SDS011;8251;53.568;10.018;2023-04-15T10:31:11;26.43;;;16.13;;
16286;SDS011;8251;53.568;10.018;2023-04-15T10:33:39;19.40;;;13.53;;
16286;SDS011;8251;53.568;10.018;2023-04-15T10:36:07;23.13;;;14.60;;
16286;SDS011;8251;53.568;10.018;2023-04-15T10:38:34;20.00;;;12.27;;
16286;SDS011;8251;53.568;10.018;2023-04-15T10:41:13;24.77;;;14.93;;
16286;SDS011;8251;53.568;10.018;2023-04-15T10:43:44;26.83;;;12.83;;
16286;SDS011;8251;53.568;10.018;2023-04-15T10:46:15;22.90;;;14.00;;
16286;SDS011;8251;53.568;10.018;2023-04-15T10:48:47;17.00;;;11.63;;
16286;SDS011;8251;53.568;10.018;2023-04-15T10:51:15;17.07;;;11.07;;
16286;SDS011;8251;53.568;10.018;2023-04-15T10:53:54;17.53;;;10.40;;
16286;SDS011;8251;53.568;10.018;2023-04-15T10:56:25;15.27;;;9.97;;
16286;SDS011;8251;53.568;10.018;2023-04-15T10:58:54;15.83;;;10.93;;
16286;SDS011;8251;53.568;10.018;2023-04-15T11:01:26;17.17;;;10.13;;
16286;SDS011;8251;53.568;10.018;2023-04-15T11:13:32;12.97;;;9.00;;
16286;SDS011;8251;53.568;10.018;2023-04-15T11:16:00;12.40;;;8.73;;
16286;SDS011;8251;53.568;10.018;2023-04-15T11:18:29;12.50;;;8.47;;
16286;SDS011;8251;53.568;10.018;2023-04-15T11:20:59;9.50;;;7.33;;
16286;SDS011;8251;53.568;10.018;2023-04-15T11:23:30;8.83;;;6.90;;
16286;SDS011;8251;53.568;10.018;2023-04-15T11:26:05;10.63;;;6.93;;
16286;SDS011;8251;53.568;10.018;2023-04-15T11:28:38;13.40;;;7.93;;
16286;SDS011;8251;53.568;10.018;2023-04-15T11:31:07;9.83;;;7.40;;
16286;SDS011;8251;53.568;10.018;2023-04-15T11:33:37;11.27;;;7.90;;
16286;SDS011;8251;53.568;10.018;2023-04-15T11:36:13;7.63;;;6.50;;
16286;SDS011;8251;53.568;10.018;2023-04-15T11:38:43;10.03;;;7.20;;
16286;SDS011;8251;53.568;10.018;2023-04-15T11:41:19;10.40;;;7.97;;
16286;SDS011;8251;53.568;10.018;2023-04-15T11:43:59;12.37;;;7.73;;
16286;SDS011;8251;53.568;10.018;2023-04-15T11:46:32;16.87;;;8.47;;
16286;SDS011;8251;53.568;10.018;2023-04-15T11:48:58;11.70;;;8.00;;
16286;SDS011;8251;53.568;10.018;2023-04-15T11:51:26;16.93;;;7.90;;
16286;SDS011;8251;53.568;10.018;2023-04-15T11:53:59;11.77;;;8.07;;
16286;SDS011;8251;53.568;10.018;2023-04-15T11:56:27;14.10;;;7.73;;
16286;SDS011;8251;53.568;10.018;2023-04-15T11:59:04;12.87;;;8.70;;
16286;SDS011;8251;53.568;10.018;2023-04-15T12:01:37;12.17;;;7.70;;
16286;SDS011;8251;53.568;10.018;2023-04-15T12:04:09;10.20;;;7.07;;
16286;SDS011;8251;53.568;10.018;2023-04-15T12:06:37;9.57;;;7.50;;
16286;SDS011;8251;53.568;10.018;2023-04-15T12:09:08;6.87;;;5.60;;
16286;SDS011;8251;53.568;10.018;2023-04-15T12:11:41;10.03;;;6.80;;
16286;SDS011;8251;53.568;10.018;2023-04-15T12:14:11;12.37;;;7.07;;
16286;SDS011;8251;53.568;10.018;2023-04-15T12:16:47;13.47;;;7.23;;
16286;SDS011;8251;53.568;10.018;2023-04-15T12:19:16;10.10;;;7.80;;
16286;SDS011;8251;53.568;10.018;2023-04-15T12:21:47;10.57;;;7.40;;
16286;SDS011;8251;53.568;10.018;2023-04-15T12:24:14;10.23;;;7.83;;
16286;SDS011;8251;53.568;10.018;2023-04-15T12:26:45;13.63;;;7.53;;
16286;SDS011;8251;53.568;10.018;2023-04-15T12:29:15;11.73;;;7.80;;
16286;SDS011;8251;53.568;10.018;2023-04-15T12:31:48;17.07;;;8.80;;
16286;SDS011;8251;53.568;10.018;2023-04-15T12:34:16;8.77;;;7.13;;
16286;SDS011;8251;53.568;10.018;2023-04-15T12:36:46;10.63;;;7.90;;
16286;SDS011;8251;53.568;10.018;2023-04-15T12:39:15;9.23;;;6.63;;
16286;SDS011;8251;53.568;10.018;2023-04-15T12:41:43;12.30;;;7.03;;
16286;SDS011;8251;53.568;10.018;2023-04-15T12:44:11;9.60;;;7.03;;
16286;SDS011;8251;53.568;10.018;2023-04-15T12:46:39;9.40;;;6.90;;
16286;SDS011;8251;53.568;10.018;2023-04-15T12:49:07;10.13;;;6.87;;
16286;SDS011;8251;53.568;10.018;2023-04-15T12:51:34;10.07;;;6.63;;
16286;SDS011;8251;53.568;10.018;2023-04-15T12:54:04;7.60;;;6.50;;
16286;SDS011;8251;53.568;10.018;2023-04-15T12:56:32;11.23;;;7.80;;
16286;SDS011;8251;53.568;10.018;2023-04-15T12:59:02;11.17;;;7.23;;
16286;SDS011;8251;53.568;10.018;2023-04-15T13:01:29;9.47;;;7.40;;
16286;SDS011;8251;53.568;10.018;2023-04-15T13:04:00;12.10;;;7.33;;
16286;SDS011;8251;53.568;10.018;2023-04-15T13:06:27;10.73;;;7.03;;
16286;SDS011;8251;53.568;10.018;2023-04-15T13:08:57;10.97;;;6.87;;
16286;SDS011;8251;53.568;10.018;2023-04-15T13:11:28;11.07;;;7.30;;
16286;SDS011;8251;53.568;10.018;2023-04-15T13:13:57;8.73;;;7.00;;
16286;SDS011;8251;53.568;10.018;2023-04-15T13:16:26;11.10;;;7.27;;
16286;SDS011;8251;53.568;10.018;2023-04-15T13:18:53;9.87;;;6.53;;
16286;SDS011;8251;53.568;10.018;2023-04-15T13:21:21;11.77;;;7.87;;
16286;SDS011;8251;53.568;10.018;2023-04-15T13:23:48;11.93;;;7.20;;
16286;SDS011;8251;53.568;10.018;2023-04-15T13:26:16;10.10;;;6.97;;
16286;SDS011;8251;53.568;10.018;2023-04-15T13:28:43;8.70;;;6.63;;
16286;SDS011;8251;53.568;10.018;2023-04-15T13:31:10;8.53;;;6.43;;
16286;SDS011;8251;53.568;10.018;2023-04-15T13:33:40;8.13;;;6.13;;
16286;SDS011;8251;53.568;10.018;2023-04-15T13:36:13;11.73;;;6.40;;
16286;SDS011;8251;53.568;10.018;2023-04-15T13:38:41;7.73;;;5.90;;
16286;SDS011;8251;53.568;10.018;2023-04-15T13:41:08;8.77;;;6.33;;
16286;SDS011;8251;53.568;10.018;2023-04-15T13:43:35;9.00;;;6.03;;
16286;SDS011;8251;53.568;10.018;2023-04-15T13:46:02;9.37;;;5.40;;
16286;SDS011;8251;53.568;10.018;2023-04-15T13:48:30;10.53;;;6.50;;
16286;SDS011;8251;53.568;10.018;2023-04-15T13:51:00;7.20;;;5.90;;
16286;SDS011;8251;53.568;10.018;2023-04-15T13:53:27;10.47;;;6.40;;
16286;SDS011;8251;53.568;10.018;2023-04-15T13:55:56;9.50;;;6.00;;
16286;SDS011;8251;53.568;10.018;2023-04-15T13:58:23;7.57;;;4.83;;
16286;SDS011;8251;53.568;10.018;2023-04-15T14:00:50;7.47;;;4.90;;
16286;SDS011;8251;53.568;10.018;2023-04-15T14:03:17;6.47;;;5.20;;
16286;SDS011;8251;53.568;10.018;2023-04-15T14:05:44;5.73;;;4.70;;
16286;SDS011;8251;53.568;10.018;2023-04-15T14:08:12;7.57;;;5.10;;
16286;SDS011;8251;53.568;10.018;2023-04-15T14:10:40;38.73;;;5.93;;
16286;SDS011;8251;53.568;10.018;2023-04-15T14:13:12;7.00;;;5.30;;
16286;SDS011;8251;53.568;10.018;2023-04-15T14:15:39;6.03;;;5.43;;
16286;SDS011;8251;53.568;10.018;2023-04-15T14:18:06;7.63;;;5.57;;
16286;SDS011;8251;53.568;10.018;2023-04-15T14:20:33;6.77;;;4.53;;
16286;SDS011;8251;53.568;10.018;2023-04-15T14:23:00;14.70;;;6.20;;
16286;SDS011;8251;53.568;10.018;2023-04-15T14:25:27;11.07;;;5.33;;
16286;SDS011;8251;53.568;10.018;2023-04-15T14:27:54;7.70;;;5.30;;
16286;SDS011;8251;53.568;10.018;2023-04-15T14:30:22;6.90;;;5.57;;
16286;SDS011;8251;53.568;10.018;2023-04-15T14:32:49;8.10;;;5.87;;
16286;SDS011;8251;53.568;10.018;2023-04-15T14:35:16;8.00;;;5.77;;
16286;SDS011;8251;53.568;10.018;2023-04-15T14:37:43;9.67;;;6.13;;
16286;SDS011;8251;53.568;10.018;2023-04-15T14:40:10;8.57;;;6.57;;
16286;SDS011;8251;53.568;10.018;2023-04-15T14:42:37;6.57;;;4.87;;
16286;SDS011;8251;53.568;10.018;2023-04-15T14:45:05;6.80;;;5.13;;
16286;SDS011;8251;53.568;10.018;2023-04-15T14:47:34;6.57;;;4.97;;
16286;SDS011;8251;53.568;10.018;2023-04-15T14:50:02;7.37;;;5.83;;